sensor_id;sensor_type;location;lat;lon;timestamp;temperature;humidity
17529;DHT22;8882;53.192;8.184;2023-04-03T04:34:01;0.20;99.90
17529;DHT22;8882;53.192;8.184;2023-04-03T04:36:27;0.20;99.90
17529;DHT22;8882;53.192;8.184;2023-04-03T04:38:53;0.10;99.90
17529;DHT22;8882;53.192;8.184;2023-04-03T04:41:20;0.10;99.90
17529;DHT22;8882;53.192;8.184;2023-04-03T04:43:51;0.00;99.90
17529;DHT22;8882;53.192;8.184;2023-04-03T04:46:17;0.00;99.90
17529;DHT22;8882;53.192;8.184;2023-04-03T04:48:42;0.00;99.90
17529;DHT22;8882;53.192;8.184;2023-04-03T04:51:08;0.00;99.90
17529;DHT22;8882;53.192;8.184;2023-04-03T04:53:34;0.10;99.90
17529;DHT22;8882;53.192;8.184;2023-04-03T04:56:00;0.10;99.90
17529;DHT22;8882;53.192;8.184;2023-04-03T04:58:25;0.00;99.90
17529;DHT22;8882;53.192;8.184;2023-04-03T05:01:06;0.10;99.90
17529;DHT22;8882;53.192;8.184;2023-04-03T05:03:32;0.10;99.90
17529;DHT22;8882;53.192;8.184;2023-04-03T05:05:58;0.10;99.90
17529;DHT22;8882;53.192;8.184;2023-04-03T05:08:24;0.10;99.90
17529;DHT22;8882;53.192;8.184;2023-04-03T05:10:50;0.10;99.90
17529;DHT22;8882;53.192;8.184;2023-04-03T05:13:16;0.10;99.90
17529;DHT22;8882;53.192;8.184;2023-04-03T05:15:42;0.10;99.90
17529;DHT22;8882;53.192;8.184;2023-04-03T05:18:07;0.10;99.90
17529;DHT22;8882;53.192;8.184;2023-04-03T05:20:33;0.00;99.90
17529;DHT22;8882;53.192;8.184;2023-04-03T05:22:59;0.00;99.90
17529;DHT22;8882;53.192;8.184;2023-04-03T05:25:25;0.00;99.90
17529;DHT22;8882;53.192;8.184;2023-04-03T05:27:50;0.00;99.90
17529;DHT22;8882;53.192;8.184;2023-04-03T05:30:16;-0.10;99.90
17529;DHT22;8882;53.192;8.184;2023-04-03T05:32:42;-0.10;99.90
17529;DHT22;8882;53.192;8.184;2023-04-03T05:35:08;0.00;99.90
17529;DHT22;8882;53.192;8.184;2023-04-03T05:37:34;0.00;99.90
17529;DHT22;8882;53.192;8.184;2023-04-03T05:40:00;0.00;99.90
17529;DHT22;8882;53.192;8.184;2023-04-03T05:42:26;0.00;99.90
17529;DHT22;8882;53.192;8.184;2023-04-03T05:44:51;-0.10;99.90
17529;DHT22;8882;53.192;8.184;2023-04-03T05:47:18;-0.10;99.90
17529;DHT22;8882;53.192;8.184;2023-04-03T05:49:43;-0.10;99.90
17529;DHT22;8882;53.192;8.184;2023-04-03T05:52:23;0.00;99.90
17529;DHT22;8882;53.192;8.184;2023-04-03T05:54:51;0.00;99.90
17529;DHT22;8882;53.192;8.184;2023-04-03T05:57:17;0.10;99.90
17529;DHT22;8882;53.192;8.184;2023-04-03T05:59:44;0.10;99.90
17529;DHT22;8882;53.192;8.184;2023-04-03T06:02:12;0.10;99.90
17529;DHT22;8882;53.192;8.184;2023-04-03T06:04:38;0.20;99.90
17529;DHT22;8882;53.192;8.184;2023-04-03T06:07:03;0.30;99.90
17529;DHT22;8882;53.192;8.184;2023-04-03T06:09:29;0.40;99.90
17529;DHT22;8882;53.192;8.184;2023-04-03T06:11:55;0.50;99.90
17529;DHT22;8882;53.192;8.184;2023-04-03T06:14:21;0.50;99.90
17529;DHT22;8882;53.192;8.184;2023-04-03T06:16:47;0.70;99.90
17529;DHT22;8882;53.192;8.184;2023-04-03T06:19:12;0.80;99.90
17529;DHT22;8882;53.192;8.184;2023-04-03T06:21:38;0.90;99.90
17529;DHT22;8882;53.192;8.184;2023-04-03T06:24:05;1.10;99.90
17529;DHT22;8882;53.192;8.184;2023-04-03T06:26:31;1.20;99.90
17529;DHT22;8882;53.192;8.184;2023-04-03T06:28:57;1.40;99.90
17529;DHT22;8882;53.192;8.184;2023-04-03T06:31:22;1.50;99.90
17529;DHT22;8882;53.192;8.184;2023-04-03T06:33:48;1.60;99.90
17529;DHT22;8882;53.192;8.184;2023-04-03T06:36:14;1.70;51.70
17529;DHT22;8882;53.192;8.184;2023-04-03T06:38:39;1.90;8.70
17529;DHT22;8882;53.192;8.184;2023-04-03T06:41:05;2.10;1.00
17529;DHT22;8882;53.192;8.184;2023-04-03T06:43:30;2.20;1.00
17529;DHT22;8882;53.192;8.184;2023-04-03T06:45:59;2.30;1.00
17529;DHT22;8882;53.192;8.184;2023-04-03T06:48:24;2.40;1.00
17529;DHT22;8882;53.192;8.184;2023-04-03T06:50:50;2.50;1.00
17529;DHT22;8882;53.192;8.184;2023-04-03T06:53:15;2.80;99.90
17529;DHT22;8882;53.192;8.184;2023-04-03T06:55:41;3.00;1.00
17529;DHT22;8882;53.192;8.184;2023-04-03T06:58:07;3.20;1.00
17529;DHT22;8882;53.192;8.184;2023-04-03T07:00:33;3.20;41.00
17529;DHT22;8882;53.192;8.184;2023-04-03T07:02:58;3.50;1.00
17529;DHT22;8882;53.192;8.184;2023-04-03T07:05:24;3.60;16.90
17529;DHT22;8882;53.192;8.184;2023-04-03T07:07:50;3.70;1.00
17529;DHT22;8882;53.192;8.184;2023-04-03T07:10:16;3.80;1.00
17529;DHT22;8882;53.192;8.184;2023-04-03T07:12:42;4.00;1.00
17529;DHT22;8882;53.192;8.184;2023-04-03T07:15:08;4.10;99.90
17529;DHT22;8882;53.192;8.184;2023-04-03T07:17:33;4.20;99.90
17529;DHT22;8882;53.192;8.184;2023-04-03T07:19:59;4.20;1.00
17529;DHT22;8882;53.192;8.184;2023-04-03T07:22:25;4.30;1.00
17529;DHT22;8882;53.192;8.184;2023-04-03T07:24:50;4.40;1.00
17529;DHT22;8882;53.192;8.184;2023-04-03T07:27:16;4.60;99.90
17529;DHT22;8882;53.192;8.184;2023-04-03T07:29:43;4.70;1.00
17529;DHT22;8882;53.192;8.184;2023-04-03T07:32:09;4.70;1.00
17529;DHT22;8882;53.192;8.184;2023-04-03T07:34:35;4.70;99.90
17529;DHT22;8882;53.192;8.184;2023-04-03T07:37:01;4.70;1.00
17529;DHT22;8882;53.192;8.184;2023-04-03T07:39:28;4.80;99.90
17529;DHT22;8882;53.192;8.184;2023-04-03T07:41:54;4.80;99.90
17529;DHT22;8882;53.192;8.184;2023-04-03T07:44:21;4.90;99.90
17529;DHT22;8882;53.192;8.184;2023-04-03T07:46:47;4.90;99.90
17529;DHT22;8882;53.192;8.184;2023-04-03T07:49:13;5.00;99.90
17529;DHT22;8882;53.192;8.184;2023-04-03T07:51:39;5.10;96.20
17529;DHT22;8882;53.192;8.184;2023-04-03T07:54:05;5.10;1.00
17529;DHT22;8882;53.192;8.184;2023-04-03T07:56:30;5.20;1.00
17529;DHT22;8882;53.192;8.184;2023-04-03T07:58:57;5.10;1.00
17529;DHT22;8882;53.192;8.184;2023-04-03T08:01:22;5.00;99.90
17529;DHT22;8882;53.192;8.184;2023-04-03T08:03:48;5.00;1.00
17529;DHT22;8882;53.192;8.184;2023-04-03T08:06:13;5.10;99.90
17529;DHT22;8882;53.192;8.184;2023-04-03T08:08:40;5.20;1.00
17529;DHT22;8882;53.192;8.184;2023-04-03T08:11:06;5.30;99.90
17529;DHT22;8882;53.192;8.184;2023-04-03T08:13:33;5.30;99.90
17529;DHT22;8882;53.192;8.184;2023-04-03T08:16:08;5.50;99.90
17529;DHT22;8882;53.192;8.184;2023-04-03T08:18:33;5.60;1.00
17529;DHT22;8882;53.192;8.184;2023-04-03T08:20:59;5.70;1.00
17529;DHT22;8882;53.192;8.184;2023-04-03T08:23:24;5.70;1.00
17529;DHT22;8882;53.192;8.184;2023-04-03T08:25:50;5.90;1.00
17529;DHT22;8882;53.192;8.184;2023-04-03T08:28:16;6.00;1.00
17529;DHT22;8882;53.192;8.184;2023-04-03T08:30:42;6.00;1.00
17529;DHT22;8882;53.192;8.184;2023-04-03T08:33:08;6.10;1.00
17529;DHT22;8882;53.192;8.184;2023-04-03T08:35:38;6.20;99.90
17529;DHT22;8882;53.192;8.184;2023-04-03T08:38:04;6.20;99.90
17529;DHT22;8882;53.192;8.184;2023-04-03T08:40:29;6.30;99.90
17529;DHT22;8882;53.192;8.184;2023-04-03T08:43:18;6.40;99.90
17529;DHT22;8882;53.192;8.184;2023-04-03T08:45:52;6.50;99.90
17529;DHT22;8882;53.192;8.184;2023-04-03T08:48:29;6.60;99.90
17529;DHT22;8882;53.192;8.184;2023-04-03T08:51:02;6.60;99.90
17529;DHT22;8882;53.192;8.184;2023-04-03T08:53:33;6.70;99.90
17529;DHT22;8882;53.192;8.184;2023-04-03T08:56:04;6.80;99.90
17529;DHT22;8882;53.192;8.184;2023-04-03T08:58:36;6.90;99.90
17529;DHT22;8882;53.192;8.184;2023-04-03T09:03:49;6.90;99.90
17529;DHT22;8882;53.192;8.184;2023-04-03T09:06:20;7.00;99.90
17529;DHT22;8882;53.192;8.184;2023-04-03T09:09:00;7.20;99.90
17529;DHT22;8882;53.192;8.184;2023-04-03T09:14:40;7.50;99.90
17529;DHT22;8882;53.192;8.184;2023-04-03T09:17:22;7.70;99.90
17529;DHT22;8882;53.192;8.184;2023-04-03T09:20:14;7.80;99.90
17529;DHT22;8882;53.192;8.184;2023-04-03T09:22:43;7.90;99.90
17529;DHT22;8882;53.192;8.184;2023-04-03T09:25:17;8.00;99.90
17529;DHT22;8882;53.192;8.184;2023-04-03T09:27:43;8.10;99.90
17529;DHT22;8882;53.192;8.184;2023-04-03T09:32:52;8.30;99.90
17529;DHT22;8882;53.192;8.184;2023-04-03T09:35:25;8.50;99.90
17529;DHT22;8882;53.192;8.184;2023-04-03T09:37:53;8.40;99.90
17529;DHT22;8882;53.192;8.184;2023-04-03T09:42:51;8.50;99.90
17529;DHT22;8882;53.192;8.184;2023-04-03T09:45:26;8.60;99.90
17529;DHT22;8882;53.192;8.184;2023-04-03T09:50:34;8.60;99.90
17529;DHT22;8882;53.192;8.184;2023-04-03T09:53:05;8.70;99.90
17529;DHT22;8882;53.192;8.184;2023-04-03T09:55:33;8.50;99.90
17529;DHT22;8882;53.192;8.184;2023-04-03T09:58:30;8.60;99.90
17529;DHT22;8882;53.192;8.184;2023-04-03T10:00:58;8.70;99.90
17529;DHT22;8882;53.192;8.184;2023-04-03T10:03:42;9.00;99.90
17529;DHT22;8882;53.192;8.184;2023-04-03T10:06:23;9.20;99.90
17529;DHT22;8882;53.192;8.184;2023-04-03T10:09:00;9.40;99.90
17529;DHT22;8882;53.192;8.184;2023-04-03T10:11:26;9.30;99.90
17529;DHT22;8882;53.192;8.184;2023-04-03T10:13:55;9.20;99.90
17529;DHT22;8882;53.192;8.184;2023-04-03T10:16:46;9.20;99.90
17529;DHT22;8882;53.192;8.184;2023-04-03T10:22:04;9.20;99.90
17529;DHT22;8882;53.192;8.184;2023-04-03T10:27:42;9.50;99.90
17529;DHT22;8882;53.192;8.184;2023-04-03T10:30:28;9.60;99.90
17529;DHT22;8882;53.192;8.184;2023-04-03T10:33:08;9.30;99.90
17529;DHT22;8882;53.192;8.184;2023-04-03T10:41:53;9.30;99.90
17529;DHT22;8882;53.192;8.184;2023-04-03T10:44:29;9.40;99.90
17529;DHT22;8882;53.192;8.184;2023-04-03T10:52:57;9.40;99.90
17529;DHT22;8882;53.192;8.184;2023-04-03T10:55:38;9.70;99.90
17529;DHT22;8882;53.192;8.184;2023-04-03T10:58:05;9.70;99.90
17529;DHT22;8882;53.192;8.184;2023-04-03T11:00:44;9.80;99.90
17529;DHT22;8882;53.192;8.184;2023-04-03T11:06:02;9.70;99.90
17529;DHT22;8882;53.192;8.184;2023-04-03T11:08:51;9.70;99.90
17529;DHT22;8882;53.192;8.184;2023-04-03T11:11:25;9.50;99.90
17529;DHT22;8882;53.192;8.184;2023-04-03T11:13:58;9.60;99.90
17529;DHT22;8882;53.192;8.184;2023-04-03T11:16:31;9.70;99.90
17529;DHT22;8882;53.192;8.184;2023-04-03T11:21:44;9.70;99.90
17529;DHT22;8882;53.192;8.184;2023-04-03T11:24:24;9.70;99.90
17529;DHT22;8882;53.192;8.184;2023-04-03T11:26:51;9.80;99.90
17529;DHT22;8882;53.192;8.184;2023-04-03T11:29:24;9.80;99.90
17529;DHT22;8882;53.192;8.184;2023-04-03T11:32:27;9.80;99.90
17529;DHT22;8882;53.192;8.184;2023-04-03T11:35:00;9.70;99.90
17529;DHT22;8882;53.192;8.184;2023-04-03T11:37:38;9.70;99.90
17529;DHT22;8882;53.192;8.184;2023-04-03T11:40:26;9.60;99.90
17529;DHT22;8882;53.192;8.184;2023-04-03T11:43:03;9.40;99.90
17529;DHT22;8882;53.192;8.184;2023-04-03T11:50:47;9.90;99.90
17529;DHT22;8882;53.192;8.184;2023-04-03T12:14:01;10.00;99.90
17529;DHT22;8882;53.192;8.184;2023-04-03T12:19:27;10.30;99.90
17529;DHT22;8882;53.192;8.184;2023-04-03T12:24:31;10.30;99.90
17529;DHT22;8882;53.192;8.184;2023-04-03T12:38:17;9.80;99.90
17529;DHT22;8882;53.192;8.184;2023-04-03T12:41:21;9.90;99.90
17529;DHT22;8882;53.192;8.184;2023-04-03T12:44:19;9.80;99.90
17529;DHT22;8882;53.192;8.184;2023-04-03T12:46:52;9.80;99.90
17529;DHT22;8882;53.192;8.184;2023-04-03T12:49:33;9.90;99.90
17529;DHT22;8882;53.192;8.184;2023-04-03T12:52:04;9.90;99.90
17529;DHT22;8882;53.192;8.184;2023-04-03T12:54:38;9.90;99.90
17529;DHT22;8882;53.192;8.184;2023-04-03T12:57:20;9.90;99.90
17529;DHT22;8882;53.192;8.184;2023-04-03T12:59:46;9.90;99.90
17529;DHT22;8882;53.192;8.184;2023-04-03T13:02:25;10.00;99.90
17529;DHT22;8882;53.192;8.184;2023-04-03T13:04:54;9.90;99.90
17529;DHT22;8882;53.192;8.184;2023-04-03T13:07:34;10.00;99.90
17529;DHT22;8882;53.192;8.184;2023-04-03T13:12:46;9.90;99.90
17529;DHT22;8882;53.192;8.184;2023-04-03T13:15:18;10.00;99.90
17529;DHT22;8882;53.192;8.184;2023-04-03T13:17:44;10.00;99.90
17529;DHT22;8882;53.192;8.184;2023-04-03T13:20:13;10.00;99.90
17529;DHT22;8882;53.192;8.184;2023-04-03T13:22:51;10.00;99.90
17529;DHT22;8882;53.192;8.184;2023-04-03T13:25:20;10.00;99.90
17529;DHT22;8882;53.192;8.184;2023-04-03T13:27:46;10.00;99.90
17529;DHT22;8882;53.192;8.184;2023-04-03T13:30:28;9.90;99.90
17529;DHT22;8882;53.192;8.184;2023-04-03T13:32:57;9.90;99.90
17529;DHT22;8882;53.192;8.184;2023-04-03T13:37:59;9.70;99.90
17529;DHT22;8882;53.192;8.184;2023-04-03T13:40:25;9.80;99.90
17529;DHT22;8882;53.192;8.184;2023-04-03T13:43:17;9.80;99.90
17529;DHT22;8882;53.192;8.184;2023-04-03T13:46:04;9.80;99.90
17529;DHT22;8882;53.192;8.184;2023-04-03T13:48:42;9.90;99.90
17529;DHT22;8882;53.192;8.184;2023-04-03T13:56:21;9.60;99.90
17529;DHT22;8882;53.192;8.184;2023-04-03T13:59:01;9.70;99.90
17529;DHT22;8882;53.192;8.184;2023-04-03T14:01:44;9.80;99.90
17529;DHT22;8882;53.192;8.184;2023-04-03T14:04:20;9.80;99.90
17529;DHT22;8882;53.192;8.184;2023-04-03T14:06:47;9.80;99.90
17529;DHT22;8882;53.192;8.184;2023-04-03T14:09:14;9.80;99.90
17529;DHT22;8882;53.192;8.184;2023-04-03T14:11:41;9.60;99.90
17529;DHT22;8882;53.192;8.184;2023-04-03T14:14:15;9.40;99.90
17529;DHT22;8882;53.192;8.184;2023-04-03T14:16:45;9.30;99.90
17529;DHT22;8882;53.192;8.184;2023-04-03T14:19:20;9.10;99.90
17529;DHT22;8882;53.192;8.184;2023-04-03T14:21:46;9.00;99.90
17529;DHT22;8882;53.192;8.184;2023-04-03T14:24:12;9.10;99.90
17529;DHT22;8882;53.192;8.184;2023-04-03T14:26:38;9.10;99.90
17529;DHT22;8882;53.192;8.184;2023-04-03T14:29:03;9.40;99.90
17529;DHT22;8882;53.192;8.184;2023-04-03T14:31:29;9.40;99.90
17529;DHT22;8882;53.192;8.184;2023-04-03T14:33:54;9.50;99.90
17529;DHT22;8882;53.192;8.184;2023-04-03T14:36:25;9.60;99.90
17529;DHT22;8882;53.192;8.184;2023-04-03T14:38:51;9.70;99.90
17529;DHT22;8882;53.192;8.184;2023-04-03T14:41:19;9.60;99.90
17529;DHT22;8882;53.192;8.184;2023-04-03T14:43:47;9.60;99.90
17529;DHT22;8882;53.192;8.184;2023-04-03T14:46:17;9.30;99.90
17529;DHT22;8882;53.192;8.184;2023-04-03T14:48:43;9.10;99.90
17529;DHT22;8882;53.192;8.184;2023-04-03T14:51:11;8.70;99.90
17529;DHT22;8882;53.192;8.184;2023-04-03T14:53:37;8.50;99.90
17529;DHT22;8882;53.192;8.184;2023-04-03T14:56:11;8.40;99.90
17529;DHT22;8882;53.192;8.184;2023-04-03T14:58:37;8.50;99.90
17529;DHT22;8882;53.192;8.184;2023-04-03T15:01:03;8.50;99.90
17529;DHT22;8882;53.192;8.184;2023-04-03T15:03:28;8.50;99.90
17529;DHT22;8882;53.192;8.184;2023-04-03T15:05:54;8.50;99.90
17529;DHT22;8882;53.192;8.184;2023-04-03T15:08:25;8.50;99.90
17529;DHT22;8882;53.192;8.184;2023-04-03T15:10:51;8.40;99.90
17529;DHT22;8882;53.192;8.184;2023-04-03T15:13:21;8.50;99.90
17529;DHT22;8882;53.192;8.184;2023-04-03T15:15:47;8.40;99.90
17529;DHT22;8882;53.192;8.184;2023-04-03T15:18:22;8.50;99.90
17529;DHT22;8882;53.192;8.184;2023-04-03T15:20:48;8.40;99.90
17529;DHT22;8882;53.192;8.184;2023-04-03T15:23:16;8.40;99.90
17529;DHT22;8882;53.192;8.184;2023-04-03T15:25:43;8.30;99.90
17529;DHT22;8882;53.192;8.184;2023-04-03T15:28:39;8.30;99.90
17529;DHT22;8882;53.192;8.184;2023-04-03T15:31:06;8.40;99.90
17529;DHT22;8882;53.192;8.184;2023-04-03T15:33:33;8.50;99.90
17529;DHT22;8882;53.192;8.184;2023-04-03T15:35:58;8.30;99.90
17529;DHT22;8882;53.192;8.184;2023-04-03T15:38:24;8.20;99.90
17529;DHT22;8882;53.192;8.184;2023-04-03T15:40:49;8.10;99.90
17529;DHT22;8882;53.192;8.184;2023-04-03T15:43:15;8.20;1.00
17529;DHT22;8882;53.192;8.184;2023-04-03T15:45:42;8.30;1.00
17529;DHT22;8882;53.192;8.184;2023-04-03T15:48:08;8.20;1.00
17529;DHT22;8882;53.192;8.184;2023-04-03T15:50:34;8.10;1.00
17529;DHT22;8882;53.192;8.184;2023-04-03T15:53:00;7.90;1.00
17529;DHT22;8882;53.192;8.184;2023-04-03T15:55:29;7.80;49.80
17529;DHT22;8882;53.192;8.184;2023-04-03T15:57:55;7.90;99.90
17529;DHT22;8882;53.192;8.184;2023-04-03T16:00:21;7.80;99.90
17529;DHT22;8882;53.192;8.184;2023-04-03T16:02:49;7.80;99.90
17529;DHT22;8882;53.192;8.184;2023-04-03T16:05:17;7.90;99.90
17529;DHT22;8882;53.192;8.184;2023-04-03T16:07:43;7.90;99.90
17529;DHT22;8882;53.192;8.184;2023-04-03T16:10:11;7.90;99.90
17529;DHT22;8882;53.192;8.184;2023-04-03T16:12:36;7.80;99.90
17529;DHT22;8882;53.192;8.184;2023-04-03T16:15:03;7.90;99.90
17529;DHT22;8882;53.192;8.184;2023-04-03T16:17:31;7.90;99.90
17529;DHT22;8882;53.192;8.184;2023-04-03T16:19:57;7.80;99.90
17529;DHT22;8882;53.192;8.184;2023-04-03T16:22:24;7.80;99.90
17529;DHT22;8882;53.192;8.184;2023-04-03T16:24:50;7.80;99.90
17529;DHT22;8882;53.192;8.184;2023-04-03T16:27:16;7.80;99.90
17529;DHT22;8882;53.192;8.184;2023-04-03T16:29:41;7.80;99.90
17529;DHT22;8882;53.192;8.184;2023-04-03T16:32:07;7.80;1.00
17529;DHT22;8882;53.192;8.184;2023-04-03T16:34:33;7.80;1.00
17529;DHT22;8882;53.192;8.184;2023-04-03T16:36:59;7.70;1.00
17529;DHT22;8882;53.192;8.184;2023-04-03T16:39:25;7.70;1.00
17529;DHT22;8882;53.192;8.184;2023-04-03T16:41:50;7.60;1.00
17529;DHT22;8882;53.192;8.184;2023-04-03T16:44:16;7.60;1.00
17529;DHT22;8882;53.192;8.184;2023-04-03T16:46:42;7.60;1.00
17529;DHT22;8882;53.192;8.184;2023-04-03T16:49:07;7.60;1.00
17529;DHT22;8882;53.192;8.184;2023-04-03T16:51:33;7.50;1.00
17529;DHT22;8882;53.192;8.184;2023-04-03T16:53:58;7.40;99.90
17529;DHT22;8882;53.192;8.184;2023-04-03T16:56:24;7.50;99.90
17529;DHT22;8882;53.192;8.184;2023-04-03T16:58:52;7.40;99.90
17529;DHT22;8882;53.192;8.184;2023-04-03T17:01:20;7.40;99.90
17529;DHT22;8882;53.192;8.184;2023-04-03T17:03:46;7.40;99.90
17529;DHT22;8882;53.192;8.184;2023-04-03T17:06:16;7.40;1.00
17529;DHT22;8882;53.192;8.184;2023-04-03T17:08:46;7.30;99.90
17529;DHT22;8882;53.192;8.184;2023-04-03T17:11:13;7.30;99.90
17529;DHT22;8882;53.192;8.184;2023-04-03T17:13:39;7.30;1.00
17529;DHT22;8882;53.192;8.184;2023-04-03T17:16:07;7.60;1.00
17529;DHT22;8882;53.192;8.184;2023-04-03T17:18:34;7.70;99.90
17529;DHT22;8882;53.192;8.184;2023-04-03T17:21:01;7.70;99.90
17529;DHT22;8882;53.192;8.184;2023-04-03T17:23:27;7.70;99.90
17529;DHT22;8882;53.192;8.184;2023-04-03T17:25:54;7.60;99.90
17529;DHT22;8882;53.192;8.184;2023-04-03T17:28:23;7.60;99.90
17529;DHT22;8882;53.192;8.184;2023-04-03T17:30:58;7.60;99.90
17529;DHT22;8882;53.192;8.184;2023-04-03T17:33:24;7.50;1.00
17529;DHT22;8882;53.192;8.184;2023-04-03T17:35:51;7.50;1.00
17529;DHT22;8882;53.192;8.184;2023-04-03T17:38:17;7.40;1.00
17529;DHT22;8882;53.192;8.184;2023-04-03T17:40:43;7.40;1.00
17529;DHT22;8882;53.192;8.184;2023-04-03T17:43:10;7.40;1.00
17529;DHT22;8882;53.192;8.184;2023-04-03T17:45:36;7.30;99.90
17529;DHT22;8882;53.192;8.184;2023-04-03T17:48:01;7.20;99.90
17529;DHT22;8882;53.192;8.184;2023-04-03T17:50:27;7.10;1.00
17529;DHT22;8882;53.192;8.184;2023-04-03T17:52:54;7.10;1.00
17529;DHT22;8882;53.192;8.184;2023-04-03T17:55:19;7.00;1.00
17529;DHT22;8882;53.192;8.184;2023-04-03T17:57:45;6.90;99.90
17529;DHT22;8882;53.192;8.184;2023-04-03T18:00:11;6.80;99.90
17529;DHT22;8882;53.192;8.184;2023-04-03T18:02:37;6.80;99.90
17529;DHT22;8882;53.192;8.184;2023-04-03T18:05:03;6.70;1.00
17529;DHT22;8882;53.192;8.184;2023-04-03T18:07:28;6.60;1.00
17529;DHT22;8882;53.192;8.184;2023-04-03T18:09:55;6.60;1.00
17529;DHT22;8882;53.192;8.184;2023-04-03T18:12:21;6.50;1.00
17529;DHT22;8882;53.192;8.184;2023-04-03T18:14:47;6.40;1.00
17529;DHT22;8882;53.192;8.184;2023-04-03T18:17:14;6.40;1.00
17529;DHT22;8882;53.192;8.184;2023-04-03T18:19:39;6.30;1.00
17529;DHT22;8882;53.192;8.184;2023-04-03T18:22:10;6.30;1.00
17529;DHT22;8882;53.192;8.184;2023-04-03T18:24:36;6.20;99.90
17529;DHT22;8882;53.192;8.184;2023-04-03T18:27:06;6.20;99.90
17529;DHT22;8882;53.192;8.184;2023-04-03T18:29:35;6.20;99.90
17529;DHT22;8882;53.192;8.184;2023-04-03T18:32:01;6.10;99.90
17529;DHT22;8882;53.192;8.184;2023-04-03T18:34:31;6.10;99.90
17529;DHT22;8882;53.192;8.184;2023-04-03T18:36:56;6.10;1.00
17529;DHT22;8882;53.192;8.184;2023-04-03T18:39:22;6.00;1.00
17529;DHT22;8882;53.192;8.184;2023-04-03T18:41:48;6.00;1.00
17529;DHT22;8882;53.192;8.184;2023-04-03T18:44:18;5.90;99.90
17529;DHT22;8882;53.192;8.184;2023-04-03T18:46:44;5.90;1.00
17529;DHT22;8882;53.192;8.184;2023-04-03T18:49:11;5.90;1.00
17529;DHT22;8882;53.192;8.184;2023-04-03T18:51:37;5.80;99.90
17529;DHT22;8882;53.192;8.184;2023-04-03T18:54:04;5.80;1.00
17529;DHT22;8882;53.192;8.184;2023-04-03T18:56:30;5.70;89.00
17529;DHT22;8882;53.192;8.184;2023-04-03T18:58:56;5.80;1.00
17529;DHT22;8882;53.192;8.184;2023-04-03T19:01:21;5.70;1.00
17529;DHT22;8882;53.192;8.184;2023-04-03T19:03:47;5.70;47.90
17529;DHT22;8882;53.192;8.184;2023-04-03T19:06:13;5.70;99.90
17529;DHT22;8882;53.192;8.184;2023-04-03T19:08:39;5.70;99.90
17529;DHT22;8882;53.192;8.184;2023-04-03T19:11:05;5.60;1.00
17529;DHT22;8882;53.192;8.184;2023-04-03T19:13:31;5.60;1.00
17529;DHT22;8882;53.192;8.184;2023-04-03T19:15:56;5.60;1.00
17529;DHT22;8882;53.192;8.184;2023-04-03T19:18:25;5.60;99.90
17529;DHT22;8882;53.192;8.184;2023-04-03T19:20:50;5.50;1.00
17529;DHT22;8882;53.192;8.184;2023-04-03T19:23:16;5.50;99.90
17529;DHT22;8882;53.192;8.184;2023-04-03T19:25:41;5.50;99.90
17529;DHT22;8882;53.192;8.184;2023-04-03T19:28:07;5.40;66.30
17529;DHT22;8882;53.192;8.184;2023-04-03T19:30:33;5.40;1.00
17529;DHT22;8882;53.192;8.184;2023-04-03T19:32:58;5.40;1.00
17529;DHT22;8882;53.192;8.184;2023-04-03T19:35:24;5.40;1.00
17529;DHT22;8882;53.192;8.184;2023-04-03T19:37:50;5.30;1.00
17529;DHT22;8882;53.192;8.184;2023-04-03T19:40:17;5.20;99.90
17529;DHT22;8882;53.192;8.184;2023-04-03T19:42:43;5.20;99.90
17529;DHT22;8882;53.192;8.184;2023-04-03T19:45:10;5.20;99.90
17529;DHT22;8882;53.192;8.184;2023-04-03T19:47:36;5.20;1.00
17529;DHT22;8882;53.192;8.184;2023-04-03T19:50:03;5.20;99.90
17529;DHT22;8882;53.192;8.184;2023-04-03T19:52:29;5.10;1.00
17529;DHT22;8882;53.192;8.184;2023-04-03T19:54:54;5.10;1.00
17529;DHT22;8882;53.192;8.184;2023-04-03T19:57:20;5.10;99.90
17529;DHT22;8882;53.192;8.184;2023-04-03T19:59:45;5.10;99.90
17529;DHT22;8882;53.192;8.184;2023-04-03T20:02:11;5.10;1.00
17529;DHT22;8882;53.192;8.184;2023-04-03T20:04:37;5.10;1.00
17529;DHT22;8882;53.192;8.184;2023-04-03T20:07:02;5.10;1.00
17529;DHT22;8882;53.192;8.184;2023-04-03T20:09:28;5.10;1.00
17529;DHT22;8882;53.192;8.184;2023-04-03T20:11:54;5.10;99.90
17529;DHT22;8882;53.192;8.184;2023-04-03T20:14:22;5.00;1.00
17529;DHT22;8882;53.192;8.184;2023-04-03T20:16:48;4.90;1.00
17529;DHT22;8882;53.192;8.184;2023-04-03T20:19:14;4.90;1.00
17529;DHT22;8882;53.192;8.184;2023-04-03T20:21:39;4.90;99.90
17529;DHT22;8882;53.192;8.184;2023-04-03T20:24:07;4.90;99.90
17529;DHT22;8882;53.192;8.184;2023-04-03T20:26:33;4.80;99.90
17529;DHT22;8882;53.192;8.184;2023-04-03T20:29:02;4.80;99.90
17529;DHT22;8882;53.192;8.184;2023-04-03T20:31:28;4.80;99.90
17529;DHT22;8882;53.192;8.184;2023-04-03T20:33:54;4.80;99.90
17529;DHT22;8882;53.192;8.184;2023-04-03T20:36:21;4.80;99.90
17529;DHT22;8882;53.192;8.184;2023-04-03T20:38:48;4.70;99.90
17529;DHT22;8882;53.192;8.184;2023-04-03T20:41:14;4.70;99.90
17529;DHT22;8882;53.192;8.184;2023-04-03T20:43:41;4.70;99.90
17529;DHT22;8882;53.192;8.184;2023-04-03T20:46:08;4.70;99.90
17529;DHT22;8882;53.192;8.184;2023-04-03T20:48:35;4.60;99.90
17529;DHT22;8882;53.192;8.184;2023-04-03T20:51:11;4.60;99.90
17529;DHT22;8882;53.192;8.184;2023-04-03T20:53:38;4.50;99.90
17529;DHT22;8882;53.192;8.184;2023-04-03T20:56:04;4.50;99.90
17529;DHT22;8882;53.192;8.184;2023-04-03T20:58:34;4.50;99.90
